Ephraim, Wisconsin
Current Conditions -  °F | °C
As of 2:35 PM on Friday 28 Nov 2014 (Local Time) from KMNM Reporting Station
Overcast Overcast  
Wind Chill: 13°   Ceiling: 1700
Heat Index: 19°   Visibility: 0.75mi
Dew Point: 18°   Wind: 5mph
Humidity: 93%   Direction: 130°SE
Pressure: 30"   Gusts: NA
Location:  45.16°N, 87.17°W
Report Text: KMNM 282035Z AUTO 13004KT 3/4SM OVC017 M07/M08 A3000 RMK AO1
Loading
Personal Weather Stations






























Interactive Weather Map New forecast layout! Learn more

10-Day Weather Forecast

Advertisements
Track Severe Weather on mobile